Yakima Air Terminal McAllister Field
KYKM : rendu visible

Aérodrome :











RETROUVEZ-NOUS SUR...

 
LOGIN :

S'inscrire | Disclaimer

   EN    FR    IT 

 









Légende :    VFR   VFR Marginal   IFR   IFR Intensif   IFR Très Intensif
Visi : 
Plafond : 
>= 8 km
>= 3000ft
5 à 8 km
1000 à 3000 ft
1500m à 5 km
500 à 1000 ft
800 à 1500m
200 à 500 ft
< 800m
< 200 ft
Symboles :   Orages  Brouillard  Fortes neiges  Fortes précipitations  Vent > 20 kt






- Altitude de l'aérodrome : 1099 ft
- Code IATA : YKM


KYKM - Yakima Air Terminal McAllister Field

DERNIER METAR :
  • 220653Z AUTO 29006KT 10SM CLR M06/M09 A3014 RMK AO2 SLPNO T10611089

METARs EXPIRÉS :
  • 220553Z 28005KT 10SM CLR M05/M08 A3013 RMK AO2 SLP214 T10501083 10067 21056 53014
  • 220453Z 27006KT 10SM CLR M04/M08 A3011 RMK AO2 SLP209 T10441078

TAF KYKM
Valide du 22 à 06h jusqu'au 23 à 06h UTC


220520Z 2206/2306 28006KT P6SM FEW250
FM221000 29007KT 5SM BR VCFG FEW250
FM221900 VRB04KT P6SM SCT250
FM230300 VRB03KT 4SM BR VCFG FEW250



MET'MAP, la Météo Aéronautique d'un coup d'oeil ! - Copyright ORBIFLY Décembre 2007 - Disclaimer

ORBIFLY MET'MAP TEAM :

Programmation & Développement : Alexandra Zaïnal
Conception & Développement : Baudouin d'Aumeries
Co-Programmation & Développement : Marc-Olivier Méhu
Soutien technique & logistique : Manuel Goepfert

Contact : metmap@orbifly.com




SOURCES & CREDITS :

   NOAA       Earth
Advisory